Flight Track Log - Related Links

Times and Time Zones

All times are in EDT time to prevent confusion due to time zone crossing. See the N901QS flight status page for this flight to view local times or setup timezone preferences in your user account.

Time Position Orientation Groundspeed Altitude Reporting Facility
EDT Latitude Longitude Course Direction KTS MPH feet Rate Location/Type
Thu 06:09:41 PM 41.6139 -70.5825 280° West 283 326 9,600  Level Boston Center
Thu 06:10:36 PM 41.6281 -70.6819 281° West 327 376 9,900 220 Climbing Boston Center
Thu 06:11:30 PM 41.6447 -70.8094 280° West 378 435 10,000 52 Climbing Boston Center
Thu 06:12:00 PM 41.7047 -71.2142 275° West  Level FlightAware Approximate
Thu 06:12:31 PM 41.6633 -70.9533 280° West 394 453 10,000  Level Boston Center
Thu 06:13:00 PM 41.7141 -71.3723 275° West  Level FlightAware Approximate
Thu 06:14:00 PM 41.7666 -71.5091 306° West  Level FlightAware Approximate
Thu 06:14:06 PM 41.6931 -71.1725 280° West 410 472 10,000  Level Boston Center
Thu 06:15:06 PM 41.7114 -71.3306 279° West 410 472 10,000 750 Level Boston Center
Thu 06:16:06 PM 41.7353 -71.4497 285° West 392 451 11,500 1,700 Climbing Boston Center
Thu 06:17:06 PM 41.7844 -71.5797 297° West 360 414 13,400 1,750 Climbing Boston Center
Thu 06:18:06 PM 41.8247 -71.6936 295° West 348 400 15,000 1,900 Climbing Boston Center
Thu 06:19:06 PM 41.8692 -71.8100 297° West 341 392 17,200 2,150 Climbing Boston Center
Thu 06:20:06 PM 41.9136 -71.9294 297° West 347 399 19,300 2,000 Climbing Boston Center
Thu 06:21:06 PM 41.9578 -72.0464 297° West 347 399 21,200 1,700 Climbing Boston Center
Thu 06:22:06 PM 42.0042 -72.1664 298° West 354 407 22,700 1,400 Climbing Boston Center
Thu 06:23:06 PM 42.0503 -72.2947 296° West 365 420 24,000 1,300 Climbing Boston Center
Thu 06:24:06 PM 42.1003 -72.4289 297° West 377 434 25,300 1,500 Climbing Boston Center
Thu 06:25:06 PM 42.1503 -72.5633 297° West 391 450 27,000 1,800 Climbing Boston Center
Thu 06:26:06 PM 42.2000 -72.6978 297° West 401 461 28,900 1,950 Climbing Boston Center
Thu 06:27:06 PM 42.2456 -72.8328 295° West 401 461 30,900 1,550 Climbing Boston Center
Thu 06:28:06 PM 42.2844 -72.9761 290° West 401 461 32,000 550 Climbing Boston Center
Thu 06:29:06 PM 42.2753 -73.1303 265° West 396 456 32,000  Level Boston Center
Thu 06:30:06 PM 42.2617 -73.2872 263° West 412 474 32,000  Level Boston Center
Thu 06:31:18 PM 42.2500 -73.4553 265° West 417 480 32,000  Level Boston Center
Thu 06:32:18 PM 42.2339 -73.6122 262° West 427 491 32,000  Level Boston Center
Thu 06:33:18 PM 42.2153 -73.7883 262° West 436 502 32,000  Level Boston Center
Thu 06:34:18 PM 42.2008 -73.9422 263° West 436 502 32,000  Level Boston Center
Thu 06:35:18 PM 42.1883 -74.0961 264° West 424 488 32,000  Level Boston Center
Thu 06:36:18 PM 42.1733 -74.2469 262° West 424 488 32,000  Level Boston Center
Thu 06:37:18 PM 42.1583 -74.4006 263° West 424 488 32,000  Level Boston Center
Thu 06:38:18 PM 42.1411 -74.5511 261° West 424 488 32,000  Level Boston Center
Thu 06:40:39 PM 42.1078 -74.8969 263° West 426 490 32,000  Level New York Center
Thu 06:41:39 PM 42.0869 -75.0689 261° West 426 490 32,000  Level New York Center
Thu 06:42:41 PM 42.0731 -75.2217 263° West 426 490 32,000  Level New York Center
Thu 06:43:39 PM 42.0425 -75.3675 254° West 426 490 32,000  Level New York Center
Thu 06:44:40 PM 41.9875 -75.5003 241° Southwest 409 471 32,000  Level New York Center
Thu 06:45:41 PM 41.9436 -75.6058 241° Southwest 409 471 32,000  Level New York Center
Thu 06:46:39 PM 41.8786 -75.7656 241° Southwest 409 471 32,000  Level New York Center
Thu 06:47:39 PM 41.8208 -75.9003 240° Southwest 409 471 32,000  Level New York Center
Thu 06:48:39 PM 41.7672 -76.0325 242° Southwest 409 471 32,000  Level New York Center
Thu 06:49:41 PM 41.7114 -76.1614 240° Southwest 409 471 32,000  Level New York Center
Thu 06:50:39 PM 41.6575 -76.2931 241° Southwest 409 471 32,000  Level New York Center
Thu 06:51:40 PM 41.6033 -76.4247 241° Southwest 404 465 32,000  Level New York Center
Thu 06:52:41 PM 41.5517 -76.5478 241° Southwest 404 465 32,000  Level New York Center
Thu 06:53:41 PM 41.4931 -76.6786 239° Southwest 404 465 32,000  Level New York Center
Thu 06:54:38 PM 41.4389 -76.8067 241° Southwest 404 465 32,000  Level New York Center
Thu 06:55:39 PM 41.3800 -76.9369 239° Southwest 404 465 32,000  Level New York Center
Thu 06:56:41 PM 41.3256 -77.0644 240° Southwest 404 465 32,000  Level New York Center
Thu 06:57:41 PM 41.2706 -77.1919 240° Southwest 404 465 32,000  Level New York Center
Thu 06:58:38 PM 41.2136 -77.3189 239° Southwest 404 465 32,000  Level New York Center
Thu 06:59:39 PM 41.1608 -77.4433 241° Southwest 404 465 32,000  Level New York Center
Thu 07:00:40 PM 41.1036 -77.5700 239° Southwest 404 465 32,000  Level New York Center
Thu 07:01:59 PM 41.0225 -77.7536 240° Southwest 398 458 32,000  Level Cleveland Center
Thu 07:02:59 PM 40.9650 -77.8800 239° Southwest 393 452 32,000  Level Cleveland Center
Thu 07:03:59 PM 40.9097 -78.0114 241° Southwest 398 458 32,000  Level Cleveland Center
Thu 07:05:00 PM 40.8667 -78.1478 247° West 403 464 32,000  Level Cleveland Center
Thu 07:05:59 PM 40.8239 -78.2892 248° West 408 470 32,000  Level Cleveland Center
Thu 07:06:59 PM 40.7806 -78.4278 248° West 413 475 32,000  Level Cleveland Center
Thu 07:07:59 PM 40.7375 -78.5717 248° West 418 481 32,000  Level Cleveland Center
Thu 07:08:59 PM 40.6939 -78.7128 248° West 418 481 32,000  Level Cleveland Center
Thu 07:09:59 PM 40.6503 -78.8536 248° West 418 481 32,000  Level Cleveland Center
Thu 07:10:59 PM 40.6147 -78.9803 244° Southwest 418 481 32,000  Level Cleveland Center
Thu 07:11:00 PM 40.6034 -78.9795 244° Southwest  Level FlightAware Approximate
Thu 07:11:59 PM 40.5625 -79.1400 247° West 418 481 32,000  Level Cleveland Center
Thu 07:12:59 PM 40.5183 -79.2803 248° West 418 481 32,000  Level Cleveland Center
Thu 07:13:59 PM 40.4800 -79.4039 248° West 418 481 32,000  Level Cleveland Center
Thu 07:14:59 PM 40.4356 -79.5439 247° West 418 481 32,000 -300 Level Cleveland Center
Thu 07:15:59 PM 40.3908 -79.6836 247° West 418 481 31,400 -800 Descending Cleveland Center
Thu 07:16:59 PM 40.3461 -79.8203 247° West 418 481 30,400 -1,050 Descending Cleveland Center
Thu 07:17:59 PM 40.3011 -79.9597 247° West 418 481 29,300 -1,050 Descending Cleveland Center
Thu 07:18:59 PM 40.2497 -80.1125 246° West 417 480 28,300 -650 Descending Cleveland Center
Thu 07:19:59 PM 40.2022 -80.2514 246° West 417 480 28,000 -700 Descending Cleveland Center
Thu 07:20:59 PM 40.1650 -80.3794 249° West 423 487 26,900 -1,050 Descending Cleveland Center
Thu 07:21:59 PM 40.1172 -80.5233 247° West 423 487 25,900 -1,000 Descending Cleveland Center
Thu 07:22:59 PM 40.0692 -80.6644 246° West 428 493 24,900 -1,000 Descending Cleveland Center
Thu 07:23:59 PM 40.0231 -80.8081 247° West 428 493 23,900 -1,150 Descending Cleveland Center
Thu 07:24:59 PM 39.9936 -80.9517 255° West 428 493 22,600 -950 Descending Cleveland Center
Thu 07:25:59 PM 39.9639 -81.1003 255° West 423 487 22,000 -254 Descending Cleveland Center
Thu 07:27:21 PM 39.9239 -81.2950 255° West 404 465 22,000 -208 Level Indianapolis Center
Thu 07:28:23 PM 39.8972 -81.4347 256° West 401 461 21,500 -1,500 Descending Indianapolis Center
Thu 07:29:25 PM 39.8681 -81.5775 255° West 404 465 18,900 -2,468 Descending Indianapolis Center
Thu 07:30:27 PM 39.8367 -81.7356 256° West 387 445 16,400 -2,274 Descending Indianapolis Center
Thu 07:31:29 PM 39.8089 -81.8775 256° West 399 459 14,200 -2,089 Descending Indianapolis Center
Thu 07:32:42 PM 39.7750 -82.0358 254° West 363 418 11,700 -1,839 Descending Indianapolis Center
Thu 07:33:33 PM 39.7586 -82.1203 256° West 304 350 10,400 -903 Descending Indianapolis Center
Thu 07:34:35 PM 39.7578 -82.2172 269° West 267 307 10,000 -194 Descending Indianapolis Center
Thu 07:35:37 PM 39.7786 -82.3144 286° West 275 316 10,000  Level Indianapolis Center
Thu 07:36:51 PM 39.8036 -82.4453 284° West 281 323 10,000  Level Indianapolis Center
Thu 07:37:41 PM 39.8194 -82.5267 284° West 276 318 10,000 -649 Level Indianapolis Center
Thu 07:38:42 PM 39.8389 -82.6228 285° West 273 314 8,800 -1,610 Descending Indianapolis Center
Thu 07:39:44 PM 39.8578 -82.7167 285° West 267 307 6,700 -1,355 Descending Indianapolis Center
Thu 07:40:46 PM 39.8747 -82.8119 283° West 268 308 6,000 -339 Descending Indianapolis Center
Thu 07:41:48 PM 39.8917 -82.9053 283° West 263 303 6,000 -629 Level Indianapolis Center
Thu 07:42:50 PM 39.9069 -82.9986 282° West 261 300 4,700 -1,022 Descending Indianapolis Center
Thu 07:44:03 PM 39.9592 -83.0533 321° Northwest 202 232 3,700 -871 Descending Indianapolis Center
Thu 07:44:54 PM 39.9981 -83.0450 North 210 242 2,900 -1,062 Descending Indianapolis Center
Thu 07:45:56 PM 40.0061 -82.9672 82° East 189 217 1,700 -878 Descending Indianapolis Center
Thu 07:46:57 PM 40.0042 -82.9247 93° East 164 189 1,100 -590 Descending Indianapolis Center

Login

Don't have an account? Register now (free) for customized features, flight alerts, and more!